Time;durP1;ratioP1;P1;durP2;ratioP2;P2;SDS_P1;SDS_P2;PMS_P1;PMS_P2;Temp;Humidity;BMP_temperature;BMP_pressure;BME280_temperature;BME280_humidity;BME280_pressure;Samples;Min_cycle;Max_cycle;Signal;HPM_P1;HPM_P2
2022/10/17 00:00:22;;;;;;;11.95;1.83;;;8.20;73.00;;;;;;4232670;27;20133;-82
2022/10/17 00:02:41;;;;;;;13.35;1.90;;;8.10;73.10;;;;;;4203995;28;20051;-82
2022/10/17 00:05:00;;;;;;;8.98;1.70;;;8.20;73.30;;;;;;4203686;28;20510;-82
2022/10/17 00:07:19;;;;;;;11.93;1.52;;;8.10;73.30;;;;;;4207687;28;20039;-82
2022/10/17 00:09:42;;;;;;;8.07;1.42;;;8.10;73.40;;;;;;4210256;28;20038;-82
2022/10/17 00:12:01;;;;;;;12.20;1.88;;;8.10;73.30;;;;;;4212410;28;20110;-82
2022/10/17 00:14:21;;;;;;;7.80;1.40;;;8.00;73.20;;;;;;4214194;28;20097;-82
2022/10/17 00:16:40;;;;;;;8.70;1.50;;;8.00;73.30;;;;;;4210936;28;20112;-82
2022/10/17 00:18:59;;;;;;;8.68;1.50;;;8.00;73.20;;;;;;4207832;28;20610;-82
2022/10/17 00:21:20;;;;;;;11.38;1.77;;;8.00;73.10;;;;;;4206756;28;20215;-82
2022/10/17 00:23:39;;;;;;;11.15;1.52;;;7.90;73.00;;;;;;4211581;28;20408;-82
2022/10/17 00:26:00;;;;;;;12.38;1.50;;;7.90;73.10;;;;;;4204706;28;20114;-82
2022/10/17 00:28:19;;;;;;;11.30;1.50;;;7.90;73.10;;;;;;4207813;28;20104;-82
2022/10/17 00:30:38;;;;;;;11.00;1.83;;;7.90;73.10;;;;;;4209641;28;20109;-82
2022/10/17 00:32:57;;;;;;;6.63;1.20;;;7.80;73.10;;;;;;4212785;28;20396;-82
2022/10/17 00:35:16;;;;;;;10.52;1.58;;;7.80;73.10;;;;;;4206216;28;20032;-82
2022/10/17 00:37:36;;;;;;;9.98;1.38;;;7.80;73.20;;;;;;4202813;28;20041;-82
2022/10/17 00:39:55;;;;;;;7.65;1.40;;;7.80;73.10;;;;;;4206779;28;20043;-82
2022/10/17 00:42:14;;;;;;;7.25;1.55;;;7.80;73.10;;;;;;4209443;28;20553;-82
2022/10/17 00:44:33;;;;;;;6.85;1.45;;;7.70;73.10;;;;;;4208234;28;20507;-82
2022/10/17 00:46:53;;;;;;;7.75;1.65;;;7.70;73.20;;;;;;4207048;28;20109;-81
2022/10/17 00:49:12;;;;;;;10.38;1.48;;;7.70;73.30;;;;;;4208928;28;20124;-82
2022/10/17 00:51:41;;;;;;;7.95;1.40;;;7.70;73.50;;;;;;4204182;28;20547;-81
2022/10/17 00:54:02;;;;;;;5.28;1.38;;;7.70;73.70;;;;;;4212352;28;20577;-82
2022/10/17 00:56:22;;;;;;;10.30;1.83;;;7.70;73.70;;;;;;4212096;28;20523;-82
2022/10/17 00:58:41;;;;;;;9.07;1.83;;;7.60;73.50;;;;;;4215244;28;20051;-82
2022/10/17 01:01:01;;;;;;;15.13;1.40;;;7.70;73.60;;;;;;4210833;28;20478;-82
2022/10/17 01:03:21;;;;;;;5.75;1.30;;;7.60;73.50;;;;;;4207937;28;20038;-82
2022/10/17 01:05:40;;;;;;;6.90;1.30;;;7.60;73.60;;;;;;4211401;28;20108;-82
2022/10/17 01:08:00;;;;;;;11.20;1.90;;;7.60;73.60;;;;;;4207007;28;20034;-82
2022/10/17 01:10:21;;;;;;;9.43;1.30;;;7.60;73.70;;;;;;4201400;28;20595;-82
2022/10/17 01:12:55;;;;;;;8.77;1.40;;;7.50;73.60;;;;;;4201521;28;20054;-82
2022/10/17 01:15:47;;;;;;;11.55;1.83;;;7.50;73.70;;;;;;4193253;28;20159;-82
2022/10/17 01:18:20;;;;;;;6.47;1.23;;;7.50;73.80;;;;;;4193766;28;20112;-82
2022/10/17 01:20:48;;;;;;;7.95;1.73;;;7.50;73.70;;;;;;4193030;28;20060;-82
2022/10/17 01:23:24;;;;;;;8.90;1.50;;;7.50;73.60;;;;;;4194104;28;20373;-82
2022/10/17 01:25:46;;;;;;;8.35;1.35;;;7.50;73.70;;;;;;4197590;28;20461;-82
2022/10/17 01:28:21;;;;;;;6.50;1.45;;;7.40;73.70;;;;;;4199680;28;20040;-82
2022/10/17 01:31:01;;;;;;;14.57;1.92;;;7.50;73.70;;;;;;4196908;28;20046;-82
2022/10/17 01:33:42;;;;;;;9.85;1.77;;;7.40;73.70;;;;;;4186114;28;20098;-82
2022/10/17 01:36:50;;;;;;;10.88;1.65;;;7.40;73.80;;;;;;4199855;28;20036;-82
2022/10/17 01:39:12;;;;;;;6.88;1.33;;;7.40;74.10;;;;;;4196309;28;20101;-82
2022/10/17 01:41:42;;;;;;;7.47;1.08;;;7.40;73.80;;;;;;4192962;28;20043;-82
2022/10/17 01:44:09;;;;;;;6.22;1.17;;;7.40;73.90;;;;;;4195274;28;20052;-82
2022/10/17 01:46:32;;;;;;;3.53;1.00;;;7.30;73.90;;;;;;4191353;28;20059;-82
2022/10/17 01:48:52;;;;;;;;;;;7.40;74.00;;;;;;4196667;28;20039;-82
2022/10/17 01:51:24;;;;;;;8.50;1.35;;;7.40;74.60;;;;;;4199220;28;19955;-83
2022/10/17 01:53:53;;;;;;;17.23;1.50;;;7.40;73.90;;;;;;4198338;28;20036;-82
2022/10/17 01:56:14;;;;;;;6.97;1.50;;;7.40;74.00;;;;;;4192663;28;20380;-82
2022/10/17 01:58:44;;;;;;;8.85;1.13;;;7.30;74.00;;;;;;4191781;28;20456;-82
2022/10/17 02:01:06;;;;;;;8.50;1.10;;;7.30;74.10;;;;;;4196420;28;20059;-82
2022/10/17 02:03:27;;;;;;;8.18;1.55;;;7.30;74.20;;;;;;4198673;28;20074;-82
2022/10/17 02:05:47;;;;;;;13.88;1.65;;;7.30;74.20;;;;;;4193990;28;20120;-82
2022/10/17 02:08:07;;;;;;;10.02;1.63;;;7.30;74.10;;;;;;4193118;28;20036;-81
2022/10/17 02:10:46;;;;;;;9.60;1.60;;;7.30;74.90;;;;;;4193186;28;20071;-82
2022/10/17 02:13:39;;;;;;;12.65;1.88;;;7.30;74.30;;;;;;4196049;28;20577;-82
2022/10/17 02:16:45;;;;;;;7.65;1.50;;;7.30;74.30;;;;;;4200412;28;20516;-82
2022/10/17 02:19:16;;;;;;;6.15;1.25;;;7.20;74.50;;;;;;4182518;28;20037;-81
2022/10/17 02:21:43;;;;;;;10.40;1.60;;;7.20;74.30;;;;;;4171437;28;20028;-81
2022/10/17 02:24:06;;;;;;;8.57;1.58;;;7.30;74.50;;;;;;4172365;28;20039;-82
2022/10/17 02:26:32;;;;;;;7.80;1.20;;;7.20;74.60;;;;;;4182200;28;20593;-82
2022/10/17 02:29:02;;;;;;;13.80;1.58;;;7.30;74.80;;;;;;4170361;28;20075;-83
2022/10/17 02:31:25;;;;;;;7.03;1.75;;;7.30;75.00;;;;;;4184474;28;20036;-80
2022/10/17 02:33:53;;;;;;;8.05;1.73;;;7.30;75.00;;;;;;4176183;28;20055;-82
2022/10/17 02:36:22;;;;;;;12.93;1.27;;;7.30;75.10;;;;;;4177083;28;20040;-82
2022/10/17 02:38:43;;;;;;;11.50;1.98;;;7.30;75.10;;;;;;4178062;28;20119;-82
2022/10/17 02:41:04;;;;;;;10.95;2.03;;;7.30;75.20;;;;;;4183099;28;20039;-82
2022/10/17 02:43:24;;;;;;;5.15;1.52;;;7.30;75.20;;;;;;4181606;28;20067;-82
2022/10/17 02:45:45;;;;;;;11.68;1.83;;;7.30;75.40;;;;;;4180764;28;20043;-82
2022/10/17 02:48:07;;;;;;;9.50;1.60;;;7.40;75.60;;;;;;4186091;28;20664;-82
2022/10/17 02:50:37;;;;;;;6.18;1.75;;;7.40;75.70;;;;;;4178551;28;20047;-82
2022/10/17 02:53:16;;;;;;;12.32;2.50;;;7.40;75.80;;;;;;4175328;28;20397;-82
2022/10/17 02:55:39;;;;;;;11.82;2.13;;;7.40;75.90;;;;;;4194665;28;20098;-82
2022/10/17 02:58:19;;;;;;;14.13;1.88;;;7.40;75.80;;;;;;4197369;28;20035;-82
2022/10/17 03:00:40;;;;;;;11.65;1.50;;;7.50;76.20;;;;;;4191059;28;20655;-82
2022/10/17 03:02:59;;;;;;;10.35;1.58;;;7.50;76.00;;;;;;4190020;28;20028;-82
2022/10/17 03:05:24;;;;;;;14.23;2.20;;;7.50;76.20;;;;;;4193398;28;20067;-82
2022/10/17 03:07:43;;;;;;;7.65;1.73;;;7.50;76.30;;;;;;4204054;28;20078;-82
2022/10/17 03:10:03;;;;;;;16.92;2.53;;;7.60;76.40;;;;;;4191534;28;20044;-81
2022/10/17 03:12:23;;;;;;;14.20;2.00;;;7.60;76.60;;;;;;4192713;28;20031;-82
2022/10/17 03:14:42;;;;;;;9.32;1.63;;;7.60;76.70;;;;;;4189454;28;20076;-82
2022/10/17 03:17:01;;;;;;;11.60;2.22;;;7.60;76.80;;;;;;4197653;28;20042;-83
2022/10/17 03:19:20;;;;;;;14.43;2.28;;;7.70;76.90;;;;;;4193531;28;20113;-82
2022/10/17 03:21:39;;;;;;;9.25;2.03;;;7.70;76.90;;;;;;4191446;28;20040;-82
2022/10/17 03:23:58;;;;;;;10.70;2.10;;;7.70;77.00;;;;;;4197749;28;20040;-82
2022/10/17 03:26:17;;;;;;;13.07;1.73;;;7.80;77.10;;;;;;4196346;28;20046;-82
2022/10/17 03:28:36;;;;;;;8.10;1.60;;;7.80;77.10;;;;;;4206641;28;20146;-81
2022/10/17 03:30:55;;;;;;;14.65;2.97;;;7.80;77.10;;;;;;4195550;28;20047;-82
2022/10/17 03:33:14;;;;;;;16.45;2.00;;;7.80;77.30;;;;;;4190015;28;20136;-82
2022/10/17 03:35:33;;;;;;;10.43;2.08;;;7.90;77.60;;;;;;4191137;28;20509;-82
2022/10/17 03:37:54;;;;;;;9.88;1.83;;;7.90;77.60;;;;;;4195977;28;20031;-82
2022/10/17 03:40:14;;;;;;;10.02;1.75;;;7.90;77.60;;;;;;4188273;28;20358;-82
2022/10/17 03:42:34;;;;;;;19.17;2.30;;;8.00;77.70;;;;;;4190560;28;20034;-83
2022/10/17 03:44:53;;;;;;;12.85;1.95;;;8.00;78.20;;;;;;4187901;28;20527;-82
2022/10/17 03:47:12;;;;;;;16.77;1.67;;;8.10;78.30;;;;;;4191027;28;20040;-83
2022/10/17 03:49:31;;;;;;;8.65;1.55;;;8.10;78.50;;;;;;4194228;28;20106;-82
2022/10/17 03:51:50;;;;;;;16.88;1.60;;;8.20;78.70;;;;;;4193722;28;20056;-82
2022/10/17 03:54:10;;;;;;;13.88;1.70;;;8.20;78.80;;;;;;4193561;28;20036;-83
2022/10/17 03:56:29;;;;;;;15.98;2.10;;;8.30;79.10;;;;;;4200469;28;20055;-82
2022/10/17 03:58:48;;;;;;;8.98;1.58;;;8.30;79.20;;;;;;4197515;28;20066;-82
2022/10/17 04:01:11;;;;;;;16.05;1.58;;;8.30;79.20;;;;;;4193030;28;20546;-82
2022/10/17 04:03:31;;;;;;;11.07;1.50;;;8.40;79.30;;;;;;4192453;28;20119;-82
2022/10/17 04:05:50;;;;;;;20.25;2.55;;;8.50;79.50;;;;;;4189864;28;20138;-82
2022/10/17 04:08:09;;;;;;;12.68;1.85;;;8.60;79.60;;;;;;4188401;28;20128;-82
2022/10/17 04:10:28;;;;;;;12.43;1.42;;;8.60;79.80;;;;;;4188318;28;20111;-85
2022/10/17 04:12:47;;;;;;;10.82;2.03;;;8.60;80.00;;;;;;4203077;28;20043;-86
2022/10/17 04:15:07;;;;;;;13.88;1.75;;;8.80;80.30;;;;;;4191411;28;20059;-83
2022/10/17 04:17:26;;;;;;;10.52;1.77;;;8.70;80.20;;;;;;4195893;28;20054;-82
2022/10/17 04:19:45;;;;;;;15.43;1.70;;;8.80;80.40;;;;;;4199581;28;20522;-83
2022/10/17 04:22:07;;;;;;;13.93;1.90;;;8.90;80.50;;;;;;4191143;28;20321;-83
2022/10/17 04:24:26;;;;;;;13.63;1.83;;;9.00;80.70;;;;;;4192638;28;20082;-82
2022/10/17 04:26:48;;;;;;;20.10;2.05;;;9.00;80.70;;;;;;4196980;28;20515;-82
2022/10/17 04:29:08;;;;;;;13.82;1.85;;;9.00;80.80;;;;;;4195360;28;20095;-82
2022/10/17 04:31:27;;;;;;;14.77;1.95;;;9.20;80.90;;;;;;4189292;28;20249;-83
2022/10/17 04:33:47;;;;;;;14.10;1.88;;;9.20;80.80;;;;;;4191630;28;20047;-83
2022/10/17 04:36:11;;;;;;;14.55;1.92;;;9.20;80.80;;;;;;4190237;28;20128;-83
2022/10/17 04:38:30;;;;;;;14.55;1.98;;;9.30;81.00;;;;;;4197772;28;20186;-82
2022/10/17 04:40:49;;;;;;;14.55;1.90;;;9.30;81.00;;;;;;4190789;28;20027;-83
2022/10/17 04:43:08;;;;;;;20.63;1.90;;;9.40;81.00;;;;;;4193620;28;20032;-83
2022/10/17 04:45:27;;;;;;;12.10;1.98;;;9.40;81.20;;;;;;4196256;28;20031;-83
2022/10/17 04:47:47;;;;;;;12.65;1.67;;;9.50;81.30;;;;;;4203383;28;20582;-83
2022/10/17 04:50:06;;;;;;;13.82;1.80;;;9.60;81.40;;;;;;4202324;28;20494;-83
2022/10/17 04:52:25;;;;;;;13.80;1.98;;;9.60;81.40;;;;;;4205744;28;20086;-82
2022/10/17 04:54:44;;;;;;;14.68;1.85;;;9.60;81.40;;;;;;4196047;28;20031;-82
2022/10/17 04:57:03;;;;;;;10.73;1.30;;;9.80;81.60;;;;;;4205704;28;20043;-83
2022/10/17 04:59:22;;;;;;;10.20;1.95;;;9.70;81.50;;;;;;4191205;28;20036;-83
2022/10/17 05:01:42;;;;;;;23.25;2.20;;;9.80;81.60;;;;;;4195361;28;20032;-83
2022/10/17 05:04:01;;;;;;;14.50;1.88;;;9.80;81.60;;;;;;4196929;28;20138;-83
2022/10/17 05:06:22;;;;;;;9.70;1.58;;;9.90;81.80;;;;;;4200689;28;20472;-82
2022/10/17 05:08:42;;;;;;;10.82;1.55;;;9.90;81.60;;;;;;4198367;28;20039;-82
2022/10/17 05:11:02;;;;;;;18.20;2.08;;;10.00;81.70;;;;;;4197696;28;20039;-83
2022/10/17 05:13:21;;;;;;;17.13;1.75;;;10.00;81.70;;;;;;4191670;28;20027;-83
2022/10/17 05:15:40;;;;;;;15.75;1.92;;;10.10;81.80;;;;;;4196365;28;20048;-83
2022/10/17 05:18:00;;;;;;;18.42;1.70;;;10.10;81.80;;;;;;4195532;28;20047;-83
2022/10/17 05:20:19;;;;;;;15.90;2.03;;;10.10;81.70;;;;;;4199304;28;20090;-83
2022/10/17 05:22:39;;;;;;;11.98;1.75;;;10.20;81.80;;;;;;4200356;28;20145;-83
2022/10/17 05:24:59;;;;;;;11.45;2.05;;;10.20;81.80;;;;;;4195290;28;20396;-83
2022/10/17 05:27:18;;;;;;;10.60;1.75;;;10.40;81.90;;;;;;4197447;28;20039;-83
2022/10/17 05:29:37;;;;;;;11.93;1.80;;;10.30;81.80;;;;;;4203084;28;20043;-84
2022/10/17 05:31:57;;;;;;;12.68;1.58;;;10.30;81.80;;;;;;4194479;28;20055;-83
2022/10/17 05:34:17;;;;;;;17.58;2.20;;;10.30;81.90;;;;;;4200098;28;20396;-83
2022/10/17 05:36:36;;;;;;;14.95;2.22;;;10.40;81.90;;;;;;4201028;28;20120;-83
2022/10/17 05:38:56;;;;;;;18.00;1.70;;;10.50;81.90;;;;;;4198316;28;20067;-83
2022/10/17 05:41:15;;;;;;;9.65;1.60;;;10.50;81.90;;;;;;4196404;28;20170;-83
2022/10/17 05:43:34;;;;;;;14.55;1.70;;;10.50;81.90;;;;;;4192336;28;20120;-83
2022/10/17 05:45:54;;;;;;;18.92;2.15;;;10.50;81.90;;;;;;4199351;28;20085;-83
2022/10/17 05:48:13;;;;;;;12.40;1.85;;;10.60;82.00;;;;;;4195858;28;20157;-83
2022/10/17 05:50:32;;;;;;;16.50;2.22;;;10.60;81.90;;;;;;4206792;28;20043;-82
2022/10/17 05:52:54;;;;;;;8.68;1.63;;;10.60;81.70;;;;;;4190674;28;20174;-83
2022/10/17 05:55:13;;;;;;;10.75;1.77;;;10.70;81.90;;;;;;4195450;28;20031;-83
2022/10/17 05:57:33;;;;;;;13.70;1.73;;;10.70;81.80;;;;;;4199106;28;20131;-83
2022/10/17 05:59:52;;;;;;;11.32;1.45;;;10.80;81.80;;;;;;4199826;28;20043;-82
2022/10/17 06:02:12;;;;;;;12.82;1.95;;;10.80;81.80;;;;;;4201711;28;20043;-83
2022/10/17 06:04:31;;;;;;;11.00;1.52;;;10.90;81.80;;;;;;4196907;28;20035;-83
2022/10/17 06:06:51;;;;;;;5.80;1.40;;;10.80;81.70;;;;;;4192602;28;20508;-83
2022/10/17 06:09:10;;;;;;;6.82;1.55;;;10.80;81.60;;;;;;4197579;28;20050;-83
2022/10/17 06:11:30;;;;;;;12.85;2.80;;;10.90;81.60;;;;;;4198547;28;20051;-83
2022/10/17 06:13:49;;;;;;;13.35;1.60;;;10.90;81.70;;;;;;4199130;28;20074;-84
2022/10/17 06:16:08;;;;;;;6.63;1.63;;;10.90;81.70;;;;;;4193663;28;20043;-84
2022/10/17 06:18:27;;;;;;;13.90;1.67;;;10.90;81.80;;;;;;4186185;28;20075;-83
2022/10/17 06:20:46;;;;;;;10.27;1.70;;;11.00;81.80;;;;;;4189383;28;20416;-84
2022/10/17 06:23:05;;;;;;;10.63;1.85;;;11.00;82.00;;;;;;4197194;28;20559;-84
2022/10/17 06:25:25;;;;;;;7.68;1.45;;;11.10;82.00;;;;;;4197174;28;20452;-84
2022/10/17 06:27:44;;;;;;;13.05;1.65;;;11.10;82.00;;;;;;4192811;28;20127;-84
2022/10/17 06:30:03;;;;;;;7.85;1.30;;;11.10;82.00;;;;;;4193170;28;20055;-85
2022/10/17 06:32:22;;;;;;;6.25;1.25;;;11.10;82.20;;;;;;4192070;28;20040;-83
2022/10/17 06:34:41;;;;;;;11.95;2.25;;;11.20;82.10;;;;;;4195599;28;20039;-84
2022/10/17 06:37:00;;;;;;;9.40;1.60;;;11.20;82.10;;;;;;4195795;28;20085;-83
2022/10/17 06:39:19;;;;;;;14.10;1.85;;;11.20;82.00;;;;;;4196150;28;20096;-83
2022/10/17 06:41:43;;;;;;;11.25;1.30;;;11.30;82.20;;;;;;4192361;28;20039;-83
2022/10/17 06:44:08;;;;;;;14.60;2.15;;;11.30;82.00;;;;;;4192373;28;20035;-83
2022/10/17 06:46:28;;;;;;;8.75;1.15;;;11.40;82.00;;;;;;4187223;28;20531;-83
2022/10/17 06:48:47;;;;;;;6.43;1.25;;;11.40;81.90;;;;;;4195741;28;20117;-83
2022/10/17 06:51:10;;;;;;;6.78;1.38;;;11.50;81.90;;;;;;4191166;28;20442;-84
2022/10/17 06:53:32;;;;;;;9.45;1.30;;;11.50;81.90;;;;;;4196964;28;20040;-84
2022/10/17 06:55:52;;;;;;;3.80;1.15;;;11.60;81.80;;;;;;4188500;28;20186;-83
2022/10/17 06:58:12;;;;;;;11.95;1.70;;;11.60;81.80;;;;;;4192641;28;20059;-83
2022/10/17 07:00:31;;;;;;;10.32;1.25;;;11.60;81.80;;;;;;4191739;28;20039;-84
2022/10/17 07:02:50;;;;;;;8.70;1.30;;;11.60;81.70;;;;;;4198321;28;20030;-84
2022/10/17 07:05:09;;;;;;;12.40;1.35;;;11.70;81.80;;;;;;4195650;28;20043;-84
2022/10/17 07:07:32;;;;;;;9.02;1.50;;;11.70;81.70;;;;;;4195167;28;20207;-84
2022/10/17 07:09:51;;;;;;;7.60;1.40;;;11.80;81.90;;;;;;4190003;28;20043;-83
2022/10/17 07:12:11;;;;;;;7.32;1.33;;;11.90;82.00;;;;;;4186701;28;20270;-83
2022/10/17 07:14:30;;;;;;;13.05;1.83;;;12.00;82.00;;;;;;4193619;28;20044;-84
2022/10/17 07:16:50;;;;;;;4.60;1.17;;;12.00;82.00;;;;;;4191255;28;20527;-84
2022/10/17 07:19:09;;;;;;;9.38;1.80;;;12.10;82.00;;;;;;4196856;28;20039;-84
2022/10/17 07:21:28;;;;;;;10.20;1.55;;;12.10;81.90;;;;;;4197866;28;20043;-84
2022/10/17 07:23:47;;;;;;;3.03;1.13;;;12.20;82.00;;;;;;4194757;28;20040;-84
2022/10/17 07:26:09;;;;;;;5.38;1.25;;;12.20;81.90;;;;;;4196233;28;20074;-85
2022/10/17 07:28:28;;;;;;;9.65;1.30;;;12.20;81.80;;;;;;4194919;28;20035;-85
2022/10/17 07:30:47;;;;;;;5.28;1.08;;;12.30;81.70;;;;;;4211337;28;20120;-84
2022/10/17 07:33:06;;;;;;;6.25;1.25;;;12.30;81.70;;;;;;4201484;28;20035;-84
2022/10/17 07:35:25;;;;;;;9.05;1.20;;;12.30;81.50;;;;;;4203393;28;20085;-85
2022/10/17 07:37:52;;;;;;;8.88;1.45;;;12.50;81.60;;;;;;4192055;28;20033;-85
2022/10/17 07:40:11;;;;;;;8.00;1.20;;;12.50;82.10;;;;;;4202278;28;20480;-84
2022/10/17 07:42:30;;;;;;;8.32;1.40;;;12.50;81.20;;;;;;4201276;28;20111;-85
2022/10/17 07:44:50;;;;;;;3.03;1.10;;;12.60;81.10;;;;;;4198813;28;20034;-84
2022/10/17 07:47:09;;;;;;;8.75;1.40;;;12.60;81.20;;;;;;4192409;28;20455;-85
2022/10/17 07:49:28;;;;;;;9.30;1.83;;;12.60;81.00;;;;;;4199450;28;20112;-84
2022/10/17 07:51:48;;;;;;;4.78;1.25;;;12.70;81.00;;;;;;4199117;28;20046;-84
2022/10/17 07:54:07;;;;;;;5.18;1.20;;;12.70;80.80;;;;;;4201734;28;20518;-85
2022/10/17 07:56:28;;;;;;;6.30;1.35;;;12.80;80.70;;;;;;4190943;28;20219;-85
2022/10/17 07:58:47;;;;;;;5.60;1.13;;;12.80;80.60;;;;;;4189773;28;20043;-84
2022/10/17 08:01:13;;;;;;;8.43;1.52;;;12.90;80.60;;;;;;4192620;28;20071;-84
2022/10/17 08:03:32;;;;;;;3.28;1.38;;;12.90;80.40;;;;;;4196632;28;20086;-85
2022/10/17 08:05:55;;;;;;;4.70;1.40;;;12.90;80.30;;;;;;4197276;28;20114;-84
2022/10/17 08:08:14;;;;;;;5.60;1.23;;;13.00;80.10;;;;;;4195446;28;20051;-85
2022/10/17 08:10:33;;;;;;;16.38;1.27;;;13.00;80.00;;;;;;4194850;28;20107;-85
2022/10/17 08:12:53;;;;;;;3.92;1.20;;;13.00;79.90;;;;;;4190221;28;20090;-84
2022/10/17 08:15:12;;;;;;;6.63;1.50;;;13.10;79.80;;;;;;4194192;28;20039;-85
2022/10/17 08:17:33;;;;;;;4.32;1.00;;;13.20;79.70;;;;;;4191235;28;20115;-85
2022/10/17 08:19:52;;;;;;;1.50;1.00;;;13.20;79.50;;;;;;4192168;28;20579;-85
2022/10/17 08:22:11;;;;;;;4.57;1.10;;;13.20;79.40;;;;;;4190310;28;20078;-85
2022/10/17 08:24:30;;;;;;;10.43;1.30;;;13.30;79.30;;;;;;4195813;28;20028;-85
2022/10/17 08:26:52;;;;;;;7.80;1.50;;;13.20;79.10;;;;;;4195283;28;20050;-84
2022/10/17 08:29:15;;;;;;;4.10;1.13;;;13.30;79.10;;;;;;4199573;28;20068;-85
2022/10/17 08:31:34;;;;;;;5.85;1.38;;;13.30;78.90;;;;;;4196738;28;20066;-84
2022/10/17 08:33:54;;;;;;;10.85;1.10;;;13.30;78.80;;;;;;4197405;28;20028;-85
2022/10/17 08:36:15;;;;;;;6.07;1.27;;;13.30;78.70;;;;;;4201012;28;20077;-85
2022/10/17 08:38:36;;;;;;;4.40;1.30;;;13.30;78.70;;;;;;4190845;28;20393;-85
2022/10/17 08:41:00;;;;;;;8.25;1.20;;;13.40;78.70;;;;;;4190494;28;20352;-85
2022/10/17 08:43:19;;;;;;;;;;;13.40;78.60;;;;;;4193785;28;20684;-84
2022/10/17 08:45:46;;;;;;;4.15;1.35;;;13.40;78.60;;;;;;4193000;28;20689;-83
2022/10/17 08:48:12;;;;;;;2.38;1.10;;;13.50;78.50;;;;;;4191255;28;20077;-85
2022/10/17 08:50:38;;;;;;;7.22;1.20;;;13.50;78.40;;;;;;4192278;28;20118;-85
2022/10/17 08:53:05;;;;;;;5.45;1.02;;;13.50;78.50;;;;;;4194502;28;20044;-85
2022/10/17 08:55:34;;;;;;;2.20;1.08;;;13.60;78.50;;;;;;4186071;28;20105;-85
2022/10/17 08:57:53;;;;;;;5.80;1.42;;;13.60;78.50;;;;;;4196903;28;20171;-85
2022/10/17 09:00:22;;;;;;;5.45;1.20;;;13.70;78.50;;;;;;4198644;28;20040;-85
2022/10/17 09:03:19;;;;;;;2.67;1.10;;;13.70;78.40;;;;;;4199299;28;20043;-84
2022/10/17 09:05:49;;;;;;;2.53;1.30;;;13.80;78.40;;;;;;4190377;28;20060;-85
2022/10/17 09:08:40;;;;;;;10.20;1.02;;;13.80;78.40;;;;;;4196608;28;20603;-85
2022/10/17 09:11:05;;;;;;;5.75;1.35;;;13.80;78.20;;;;;;4202609;28;20042;-84
2022/10/17 09:13:49;;;;;;;2.30;0.90;;;14.00;79.00;;;;;;4190956;28;20083;-85
2022/10/17 09:16:41;;;;;;;4.40;1.20;;;13.90;78.00;;;;;;4194142;28;20032;-85
2022/10/17 09:19:19;;;;;;;8.43;1.20;;;14.00;78.00;;;;;;4194609;28;20032;-84
2022/10/17 09:22:06;;;;;;;1.83;1.00;;;14.00;77.80;;;;;;4194711;28;20105;-84
2022/10/17 09:24:41;;;;;;;7.00;1.30;;;14.10;77.70;;;;;;4192547;28;20035;-85
2022/10/17 09:27:01;;;;;;;4.03;1.35;;;14.10;77.60;;;;;;4195118;28;20036;-85
2022/10/17 09:29:24;;;;;;;3.53;1.30;;;14.20;77.60;;;;;;4200581;28;20593;-85
2022/10/17 09:31:53;;;;;;;5.30;1.23;;;14.20;77.70;;;;;;4195345;28;20185;-85
2022/10/17 09:34:14;;;;;;;5.85;1.50;;;14.20;77.60;;;;;;4192288;28;20030;-85
2022/10/17 09:36:37;;;;;;;10.93;2.05;;;14.30;77.70;;;;;;4192069;28;20508;-85
2022/10/17 09:38:57;;;;;;;6.60;1.60;;;14.30;77.80;;;;;;4196852;28;20150;-85
2022/10/17 09:41:19;;;;;;;5.40;1.40;;;14.40;77.80;;;;;;4207257;28;20032;-84
2022/10/17 09:43:39;;;;;;;4.77;1.97;;;14.40;77.90;;;;;;4205595;28;20043;-85
2022/10/17 09:46:28;;;;;;;4.32;1.83;;;14.50;78.00;;;;;;4195669;28;20039;-85
2022/10/17 09:49:06;;;;;;;4.25;1.65;;;14.60;77.90;;;;;;4204702;28;20397;-85
2022/10/17 09:51:25;;;;;;;3.30;1.60;;;14.70;78.00;;;;;;4196773;28;20110;-85
2022/10/17 09:53:54;;;;;;;2.85;1.63;;;14.70;77.90;;;;;;4197366;28;20027;-85
2022/10/17 09:56:16;;;;;;;8.80;1.90;;;14.80;77.80;;;;;;4192942;28;20081;-85
2022/10/17 09:58:43;;;;;;;6.95;1.95;;;14.80;77.80;;;;;;4202999;28;20086;-85
2022/10/17 10:01:22;;;;;;;4.70;1.85;;;14.90;77.70;;;;;;4200012;28;20066;-85
2022/10/17 10:03:41;;;;;;;4.65;1.67;;;15.00;77.60;;;;;;4201596;28;20051;-85
2022/10/17 10:06:18;;;;;;;2.83;1.52;;;15.10;77.50;;;;;;4193755;28;20039;-85
2022/10/17 10:08:55;;;;;;;3.40;1.45;;;15.20;77.30;;;;;;4191968;28;20431;-85
2022/10/17 10:11:14;;;;;;;5.35;1.67;;;15.20;76.90;;;;;;4197053;28;20575;-85
2022/10/17 10:13:34;;;;;;;4.05;1.80;;;15.40;76.90;;;;;;4197934;28;20104;-85
2022/10/17 10:16:14;;;;;;;4.40;1.52;;;15.30;76.60;;;;;;4195423;28;20531;-85
2022/10/17 10:18:35;;;;;;;3.40;1.65;;;15.40;76.40;;;;;;4200440;28;20051;-85
2022/10/17 10:21:29;;;;;;;3.97;1.73;;;15.50;76.30;;;;;;4198531;28;20101;-85
2022/10/17 10:24:11;;;;;;;2.87;1.60;;;15.50;76.00;;;;;;4189316;28;20035;-85
2022/10/17 10:26:44;;;;;;;15.65;2.15;;;15.50;75.70;;;;;;4192454;28;20370;-85
2022/10/17 10:29:20;;;;;;;3.80;1.88;;;15.60;75.60;;;;;;4196914;28;20112;-86
2022/10/17 10:31:39;;;;;;;5.55;1.70;;;15.60;75.60;;;;;;4194607;28;20133;-85
2022/10/17 10:34:01;;;;;;;2.88;1.58;;;15.70;75.70;;;;;;4194728;28;20063;-85
2022/10/17 10:36:21;;;;;;;8.73;2.13;;;15.70;75.80;;;;;;4198023;28;20457;-86
2022/10/17 10:38:42;;;;;;;3.35;2.05;;;15.80;75.90;;;;;;4195450;28;20034;-86
2022/10/17 10:41:07;;;;;;;6.68;2.03;;;15.80;76.00;;;;;;4196702;28;20087;-85
2022/10/17 10:43:40;;;;;;;3.42;1.83;;;15.90;75.90;;;;;;4195584;28;20063;-85
2022/10/17 10:45:59;;;;;;;5.32;1.92;;;16.00;76.00;;;;;;4196749;28;20039;-85
2022/10/17 10:48:25;;;;;;;6.60;2.22;;;16.00;76.00;;;;;;4209560;28;20043;-86
2022/10/17 10:50:47;;;;;;;6.15;2.10;;;16.10;76.10;;;;;;4193165;28;20111;-84
2022/10/17 10:53:19;;;;;;;6.25;2.50;;;16.20;76.10;;;;;;4189507;28;20547;-85
2022/10/17 10:55:53;;;;;;;4.13;2.30;;;16.20;75.90;;;;;;4190064;28;20358;-85
2022/10/17 10:58:33;;;;;;;5.05;2.53;;;16.30;76.00;;;;;;4190173;28;20035;-86
2022/10/17 11:00:54;;;;;;;5.95;1.95;;;16.40;75.70;;;;;;4195632;28;20519;-86
2022/10/17 11:03:25;;;;;;;10.05;2.45;;;16.60;75.90;;;;;;4197252;28;20039;-85
2022/10/17 11:05:53;;;;;;;8.18;2.90;;;16.60;75.60;;;;;;4194233;28;20609;-86
2022/10/17 11:08:19;;;;;;;9.07;2.30;;;16.60;75.60;;;;;;4192321;28;20079;-85
2022/10/17 11:10:46;;;;;;;5.38;2.45;;;16.80;75.70;;;;;;4196113;28;20039;-85
2022/10/17 11:13:23;;;;;;;10.27;2.78;;;16.80;75.70;;;;;;4193114;28;20642;-86
2022/10/17 11:15:58;;;;;;;6.63;2.78;;;16.90;75.50;;;;;;4194301;28;20177;-86
2022/10/17 11:18:56;;;;;;;8.25;2.70;;;17.00;75.40;;;;;;4192041;28;20034;-85
2022/10/17 11:21:17;;;;;;;6.50;2.80;;;17.00;74.90;;;;;;4186143;28;20076;-85
2022/10/17 11:23:45;;;;;;;8.07;2.83;;;17.20;75.00;;;;;;4183605;28;20097;-86
2022/10/17 11:26:12;;;;;;;10.77;3.03;;;17.10;74.60;;;;;;4194975;28;20112;-86
2022/10/17 11:28:32;;;;;;;6.93;3.13;;;17.30;74.50;;;;;;4193893;28;20492;-86
2022/10/17 11:31:02;;;;;;;5.80;3.03;;;17.20;74.20;;;;;;4196013;28;20055;-87
2022/10/17 11:33:30;;;;;;;4.82;3.10;;;17.30;74.10;;;;;;4193120;28;20059;-86
2022/10/17 11:35:52;;;;;;;7.43;3.50;;;17.30;74.00;;;;;;4192378;28;20123;-85
2022/10/17 11:38:20;;;;;;;13.57;3.10;;;17.30;73.90;;;;;;4192209;28;20081;-86
2022/10/17 11:40:43;;;;;;;7.25;2.85;;;17.40;73.80;;;;;;4193456;28;20574;-85
2022/10/17 11:43:11;;;;;;;6.47;3.28;;;17.40;73.70;;;;;;4188599;28;20505;-85
2022/10/17 11:45:38;;;;;;;4.40;3.03;;;17.40;73.60;;;;;;4203562;28;20034;-86
2022/10/17 11:48:00;;;;;;;6.50;3.30;;;17.40;73.50;;;;;;4191207;28;20031;-85
2022/10/17 11:50:22;;;;;;;6.03;3.35;;;17.40;73.50;;;;;;4203124;28;20043;-86
2022/10/17 11:52:47;;;;;;;8.40;3.25;;;17.40;73.50;;;;;;4196914;28;20042;-85
2022/10/17 11:55:26;;;;;;;5.53;3.75;;;17.50;73.70;;;;;;4203663;28;20417;-86
2022/10/17 11:58:09;;;;;;;7.82;2.97;;;17.40;73.40;;;;;;4193507;28;20177;-86
2022/10/17 12:00:47;;;;;;;14.80;4.30;;;17.50;73.70;;;;;;4192197;28;20048;-85
2022/10/17 12:03:42;;;;;;;8.35;3.67;;;17.50;73.70;;;;;;4192717;28;20030;-85
2022/10/17 12:06:49;;;;;;;11.18;4.50;;;17.50;73.70;;;;;;4198074;28;20047;-86
2022/10/17 12:09:31;;;;;;;10.02;3.83;;;17.50;73.70;;;;;;4197731;28;20393;-86
2022/10/17 12:11:54;;;;;;;9.23;3.88;;;17.60;73.70;;;;;;4193170;28;20157;-86
2022/10/17 12:14:34;;;;;;;8.05;3.53;;;17.60;73.70;;;;;;4201239;28;20091;-85
2022/10/17 12:16:53;;;;;;;13.10;4.60;;;17.60;73.50;;;;;;4208430;28;20074;-86
2022/10/17 12:19:20;;;;;;;10.35;4.60;;;17.60;73.60;;;;;;4203849;28;20071;-85
2022/10/17 12:22:08;;;;;;;11.05;4.45;;;17.60;73.60;;;;;;4204284;28;20396;-85
2022/10/17 12:24:44;;;;;;;9.32;5.05;;;17.60;73.40;;;;;;4203792;28;20050;-86
2022/10/17 12:27:32;;;;;;;14.98;5.18;;;17.60;73.50;;;;;;4210119;28;20062;-85
2022/10/17 12:29:59;;;;;;;11.48;5.93;;;17.60;73.40;;;;;;4212407;28;20062;-86
2022/10/17 12:32:18;;;;;;;11.68;6.47;;;17.60;73.60;;;;;;4209810;28;20090;-86